Time;durP1;ratioP1;P1;durP2;ratioP2;P2;SDS_P1;SDS_P2;PMS_P1;PMS_P2;Temp;Humidity;BMP_temperature;BMP_pressure;BME280_temperature;BME280_humidity;BME280_pressure;Samples;Min_cycle;Max_cycle;Signal;HPM_P1;HPM_P2
2021/08/13 00:01:50;;;;;;;11.20;10.30;;;;;;;;;;4990135;28;24424;-49
2021/08/13 00:04:15;;;;;;;10.90;10.18;;;;;;;;;;4989904;28;24440;-49
2021/08/13 00:06:41;;;;;;;11.90;11.00;;;;;;;;;;4989966;28;24409;-49
2021/08/13 00:09:09;;;;;;;11.10;10.30;;;;;;;;;;4998370;28;24512;-49
2021/08/13 00:11:37;;;;;;;11.90;11.00;;;;;;;;;;4997420;28;24417;-49
2021/08/13 00:14:03;;;;;;;11.65;10.75;;;;;;;;;;4989880;28;24432;-49
2021/08/13 00:16:28;;;;;;;10.87;10.07;;;;;;;;;;4990198;28;24441;-49
2021/08/13 00:18:53;;;;;;;11.57;10.77;;;;;;;;;;4988176;28;24772;-50
2021/08/13 00:21:18;;;;;;;12.10;11.20;;;;;;;;;;4990714;28;24413;-50
2021/08/13 00:23:44;;;;;;;12.25;11.25;;;;;;;;;;4989802;28;24424;-49
2021/08/13 00:26:09;;;;;;;11.98;11.07;;;;;;;;;;4989865;28;24482;-49
2021/08/13 00:28:34;;;;;;;12.80;11.60;;;;;;;;;;4989527;28;24457;-49
2021/08/13 00:30:59;;;;;;;11.63;10.82;;;;;;;;;;4989661;28;24776;-50
2021/08/13 00:33:24;;;;;;;11.40;10.60;;;;;;;;;;4990324;28;24413;-49
2021/08/13 00:35:49;;;;;;;12.40;11.40;;;;;;;;;;4990258;28;24432;-50
2021/08/13 00:38:14;;;;;;;11.90;11.00;;;;;;;;;;4988700;28;24440;-50
2021/08/13 00:40:40;;;;;;;11.03;10.23;;;;;;;;;;4987038;28;24409;-50
2021/08/13 00:43:05;;;;;;;13.10;12.00;;;;;;;;;;4985573;28;24963;-49
2021/08/13 00:45:30;;;;;;;11.88;10.98;;;;;;;;;;4989602;28;24471;-49
2021/08/13 00:47:55;;;;;;;10.82;10.13;;;;;;;;;;4989789;28;24432;-50
2021/08/13 00:50:21;;;;;;;12.32;11.45;;;;;;;;;;4988743;28;24958;-50
2021/08/13 00:52:46;;;;;;;13.07;12.17;;;;;;;;;;4989569;28;24503;-49
2021/08/13 00:55:11;;;;;;;13.27;12.27;;;;;;;;;;4988603;28;24565;-49
2021/08/13 00:57:36;;;;;;;13.03;11.93;;;;;;;;;;4989434;28;24420;-49
2021/08/13 01:00:02;;;;;;;11.80;10.80;;;;;;;;;;4988721;28;24463;-48
2021/08/13 01:02:27;;;;;;;11.65;10.75;;;;;;;;;;4989367;28;24413;-49
2021/08/13 01:04:53;;;;;;;11.43;10.52;;;;;;;;;;4989235;28;24505;-49
2021/08/13 01:07:18;;;;;;;11.53;10.63;;;;;;;;;;4989024;28;24476;-49
2021/08/13 01:09:44;;;;;;;12.57;11.60;;;;;;;;;;4989174;28;24977;-48
2021/08/13 01:12:13;;;;;;;12.07;11.07;;;;;;;;;;4988758;28;24429;-49
2021/08/13 01:14:50;;;;;;;10.90;10.10;;;;;;;;;;4989173;28;24979;-49
2021/08/13 01:17:16;;;;;;;11.38;10.48;;;;;;;;;;4988388;28;25046;-49
2021/08/13 01:19:48;;;;;;;11.10;10.30;;;;;;;;;;4988912;28;24416;-48
2021/08/13 01:22:19;;;;;;;12.20;11.27;;;;;;;;;;4988744;28;25074;-49
2021/08/13 01:24:46;;;;;;;12.18;11.18;;;;;;;;;;4988470;28;25013;-49
2021/08/13 01:27:13;;;;;;;11.30;10.40;;;;;;;;;;4988664;28;24504;-49
2021/08/13 01:29:59;;;;;;;11.97;10.93;;;;;;;;;;4988977;28;24416;-49
2021/08/13 01:32:25;;;;;;;11.55;10.70;;;;;;;;;;4988411;28;25045;-48
2021/08/13 01:34:54;;;;;;;11.98;11.07;;;;;;;;;;4988734;28;24437;-49
2021/08/13 01:37:20;;;;;;;11.80;11.00;;;;;;;;;;4988298;28;24472;-48
2021/08/13 01:39:49;;;;;;;11.35;10.55;;;;;;;;;;4989200;28;24449;-50
2021/08/13 01:42:15;;;;;;;12.70;11.80;;;;;;;;;;4987688;28;24962;-50
2021/08/13 01:44:40;;;;;;;10.60;9.80;;;;;;;;;;4988968;28;24467;-48
2021/08/13 01:47:06;;;;;;;10.10;9.40;;;;;;;;;;4988416;28;24991;-49
2021/08/13 01:49:32;;;;;;;10.97;10.17;;;;;;;;;;4988786;28;24808;-49
2021/08/13 01:51:58;;;;;;;11.82;11.00;;;;;;;;;;4988400;28;25027;-49
2021/08/13 01:54:23;;;;;;;11.80;10.90;;;;;;;;;;4988192;28;25214;-49
2021/08/13 01:56:49;;;;;;;10.80;10.10;;;;;;;;;;4987820;28;24420;-48
2021/08/13 01:59:15;;;;;;;11.40;10.60;;;;;;;;;;4987893;28;24784;-49
2021/08/13 02:01:40;;;;;;;11.13;10.32;;;;;;;;;;4988108;28;24425;-49
2021/08/13 02:04:07;;;;;;;10.50;9.70;;;;;;;;;;4986335;28;24839;-49
2021/08/13 02:06:34;;;;;;;10.52;9.73;;;;;;;;;;4993792;28;24902;-50
2021/08/13 02:08:59;;;;;;;10.80;10.00;;;;;;;;;;4986752;28;24417;-49
2021/08/13 02:11:25;;;;;;;11.52;10.73;;;;;;;;;;4988544;28;24903;-49
2021/08/13 02:13:50;;;;;;;12.63;11.53;;;;;;;;;;4987898;28;24515;-50
2021/08/13 02:16:19;;;;;;;11.50;10.60;;;;;;;;;;4987740;28;24440;-49
2021/08/13 02:18:49;;;;;;;12.10;11.10;;;;;;;;;;4988051;28;24452;-50
2021/08/13 02:21:14;;;;;;;11.25;10.45;;;;;;;;;;4987756;28;24989;-50
2021/08/13 02:23:39;;;;;;;10.48;9.77;;;;;;;;;;4988552;28;24421;-49
2021/08/13 02:26:05;;;;;;;10.63;9.83;;;;;;;;;;4986890;28;24416;-50
2021/08/13 02:28:30;;;;;;;10.80;10.00;;;;;;;;;;4988097;28;25050;-50
2021/08/13 02:30:55;;;;;;;10.17;9.37;;;;;;;;;;4987607;28;24421;-50
2021/08/13 02:33:21;;;;;;;10.70;9.80;;;;;;;;;;4987783;28;24504;-50
2021/08/13 02:35:48;;;;;;;10.90;10.10;;;;;;;;;;4987233;28;24448;-51
2021/08/13 02:38:23;;;;;;;11.10;10.30;;;;;;;;;;4986775;28;24559;-50
2021/08/13 02:40:52;;;;;;;10.43;9.73;;;;;;;;;;4987895;28;24410;-50
2021/08/13 02:43:29;;;;;;;10.95;10.15;;;;;;;;;;4986404;28;25009;-50
2021/08/13 02:45:55;;;;;;;11.98;10.93;;;;;;;;;;4987648;28;24471;-51
2021/08/13 02:48:20;;;;;;;10.65;9.85;;;;;;;;;;4986844;28;24519;-50
2021/08/13 02:50:46;;;;;;;10.80;10.00;;;;;;;;;;4987699;28;25082;-49
2021/08/13 02:53:14;;;;;;;10.50;9.80;;;;;;;;;;4986834;28;24465;-50
2021/08/13 02:55:41;;;;;;;10.63;9.93;;;;;;;;;;4987297;28;24436;-50
2021/08/13 02:58:08;;;;;;;11.63;10.80;;;;;;;;;;4987169;28;24512;-49
2021/08/13 03:00:36;;;;;;;10.75;9.95;;;;;;;;;;4987246;28;24702;-49
2021/08/13 03:03:01;;;;;;;10.00;9.20;;;;;;;;;;4987596;28;24468;-48
2021/08/13 03:05:29;;;;;;;10.97;10.00;;;;;;;;;;4984968;28;24472;-49
2021/08/13 03:07:54;;;;;;;11.52;10.73;;;;;;;;;;4987545;28;24985;-49
2021/08/13 03:10:20;;;;;;;10.80;10.00;;;;;;;;;;4991520;28;24433;-50
2021/08/13 03:12:46;;;;;;;12.38;11.48;;;;;;;;;;4991531;28;24850;-50
2021/08/13 03:15:11;;;;;;;11.85;10.95;;;;;;;;;;4986812;28;24927;-51
2021/08/13 03:17:37;;;;;;;11.20;10.37;;;;;;;;;;4991033;28;25137;-50
2021/08/13 03:20:03;;;;;;;11.40;10.50;;;;;;;;;;4990834;28;24525;-50
2021/08/13 03:22:29;;;;;;;10.55;9.85;;;;;;;;;;4991399;28;24512;-50
2021/08/13 03:24:54;;;;;;;10.00;9.30;;;;;;;;;;4991224;28;24464;-50
2021/08/13 03:27:20;;;;;;;11.10;10.30;;;;;;;;;;4990593;28;24425;-49
2021/08/13 03:29:45;;;;;;;10.20;9.50;;;;;;;;;;4991049;28;24855;-50
2021/08/13 03:32:10;;;;;;;11.98;11.07;;;;;;;;;;4990356;28;24963;-50
2021/08/13 03:34:35;;;;;;;11.37;10.47;;;;;;;;;;4989325;28;25050;-50
2021/08/13 03:37:01;;;;;;;10.03;9.33;;;;;;;;;;4990872;28;24471;-50
2021/08/13 03:39:26;;;;;;;11.90;11.10;;;;;;;;;;4990306;28;24467;-49
2021/08/13 03:41:51;;;;;;;12.13;11.23;;;;;;;;;;4990859;28;25215;-51
2021/08/13 03:44:16;;;;;;;11.93;11.02;;;;;;;;;;4990217;28;25033;-50
2021/08/13 03:46:41;;;;;;;12.13;11.23;;;;;;;;;;4990873;28;24421;-49
2021/08/13 03:49:07;;;;;;;10.80;10.00;;;;;;;;;;4989191;28;24524;-50
2021/08/13 03:51:33;;;;;;;11.23;10.43;;;;;;;;;;4990913;28;24923;-49
2021/08/13 03:53:58;;;;;;;11.60;10.80;;;;;;;;;;4989686;28;24503;-50
2021/08/13 03:56:23;;;;;;;12.00;11.00;;;;;;;;;;4990125;28;24594;-49
2021/08/13 03:58:48;;;;;;;10.68;9.88;;;;;;;;;;4990244;28;25134;-50
2021/08/13 04:01:13;;;;;;;11.60;10.70;;;;;;;;;;4989850;28;24439;-50
2021/08/13 04:03:38;;;;;;;11.70;10.90;;;;;;;;;;4991049;28;24421;-50
2021/08/13 04:06:04;;;;;;;10.95;10.15;;;;;;;;;;4989893;28;24421;-50
2021/08/13 04:08:29;;;;;;;11.53;10.63;;;;;;;;;;4990058;28;24491;-50
2021/08/13 04:10:54;;;;;;;10.90;10.10;;;;;;;;;;4990291;28;24421;-49
2021/08/13 04:13:19;;;;;;;9.70;9.00;;;;;;;;;;4990569;28;24460;-50
2021/08/13 04:15:45;;;;;;;11.15;10.27;;;;;;;;;;4990268;28;24490;-51
2021/08/13 04:18:10;;;;;;;10.67;9.87;;;;;;;;;;4990465;28;25026;-51
2021/08/13 04:20:35;;;;;;;10.88;10.07;;;;;;;;;;4989871;28;24939;-51
2021/08/13 04:23:00;;;;;;;11.10;10.20;;;;;;;;;;4989842;28;24504;-50
2021/08/13 04:25:25;;;;;;;10.80;10.00;;;;;;;;;;4990374;28;24439;-51
2021/08/13 04:27:50;;;;;;;10.90;9.90;;;;;;;;;;4989719;28;24936;-51
2021/08/13 04:30:16;;;;;;;11.05;10.25;;;;;;;;;;4989436;28;24457;-52
2021/08/13 04:32:41;;;;;;;10.30;9.50;;;;;;;;;;4989977;28;24424;-50
2021/08/13 04:35:07;;;;;;;11.60;10.80;;;;;;;;;;4982582;28;24512;-50
2021/08/13 04:37:32;;;;;;;11.32;10.50;;;;;;;;;;4989688;28;24786;-50
2021/08/13 04:39:57;;;;;;;10.50;9.80;;;;;;;;;;4989391;28;24956;-51
2021/08/13 04:42:22;;;;;;;12.70;11.60;;;;;;;;;;4989833;28;24405;-50
2021/08/13 04:44:47;;;;;;;10.90;9.90;;;;;;;;;;4989274;28;24416;-51
2021/08/13 04:47:12;;;;;;;11.88;10.88;;;;;;;;;;4982788;28;24721;-50
2021/08/13 04:49:37;;;;;;;10.55;9.80;;;;;;;;;;4989196;28;24421;-50
2021/08/13 04:52:04;;;;;;;9.90;9.20;;;;;;;;;;4989821;28;24828;-50
2021/08/13 04:54:30;;;;;;;10.10;9.30;;;;;;;;;;4988386;28;24496;-50
2021/08/13 04:56:55;;;;;;;11.00;10.10;;;;;;;;;;4989708;28;24401;-51
2021/08/13 04:59:20;;;;;;;10.90;10.00;;;;;;;;;;4989718;28;24976;-50
2021/08/13 05:01:45;;;;;;;10.35;9.60;;;;;;;;;;4989365;28;24440;-50
2021/08/13 05:04:11;;;;;;;11.60;10.60;;;;;;;;;;4989884;28;24435;-50
2021/08/13 05:06:36;;;;;;;10.20;9.40;;;;;;;;;;4988754;28;24772;-50
2021/08/13 05:09:01;;;;;;;11.00;10.10;;;;;;;;;;4984521;28;24428;-50
2021/08/13 05:11:26;;;;;;;10.90;10.18;;;;;;;;;;4989069;28;24428;-50
2021/08/13 05:13:51;;;;;;;9.63;8.82;;;;;;;;;;4989188;28;24511;-49
2021/08/13 05:16:17;;;;;;;10.68;9.77;;;;;;;;;;4987914;28;24532;-51
2021/08/13 05:18:42;;;;;;;10.60;9.60;;;;;;;;;;4989502;28;24900;-50
2021/08/13 05:21:07;;;;;;;10.17;9.37;;;;;;;;;;4988791;28;24832;-50
2021/08/13 05:23:32;;;;;;;10.30;9.50;;;;;;;;;;4988365;28;24416;-51
2021/08/13 05:25:58;;;;;;;10.03;9.20;;;;;;;;;;4988897;28;24815;-50
2021/08/13 05:28:24;;;;;;;11.30;10.10;;;;;;;;;;4987170;28;24888;-50
2021/08/13 05:30:49;;;;;;;10.90;9.85;;;;;;;;;;4993649;28;24556;-50
2021/08/13 05:33:14;;;;;;;9.00;8.00;;;;;;;;;;4988466;28;24440;-50
2021/08/13 05:35:39;;;;;;;8.90;8.00;;;;;;;;;;4986724;28;24447;-51
2021/08/13 05:38:04;;;;;;;8.63;7.90;;;;;;;;;;4988145;28;24413;-51
2021/08/13 05:40:30;;;;;;;8.97;8.27;;;;;;;;;;4987101;28;24416;-52
2021/08/13 05:42:56;;;;;;;8.65;7.95;;;;;;;;;;4988610;28;25078;-51
2021/08/13 05:45:21;;;;;;;8.90;8.10;;;;;;;;;;4987651;28;24491;-52
2021/08/13 05:47:46;;;;;;;9.10;8.40;;;;;;;;;;4983640;28;24488;-52
2021/08/13 05:50:15;;;;;;;9.10;8.30;;;;;;;;;;4985605;28;24444;-52
2021/08/13 05:52:40;;;;;;;9.55;8.68;;;;;;;;;;4984236;28;24548;-51
2021/08/13 05:55:05;;;;;;;9.40;8.40;;;;;;;;;;4984504;28;24536;-51
2021/08/13 05:57:31;;;;;;;9.67;8.80;;;;;;;;;;4982931;28;24983;-52
2021/08/13 05:59:56;;;;;;;8.57;7.88;;;;;;;;;;4984327;28;24863;-52
2021/08/13 06:02:21;;;;;;;8.77;8.05;;;;;;;;;;4984653;28;24421;-51
2021/08/13 06:04:46;;;;;;;8.77;8.07;;;;;;;;;;4984682;28;24536;-51
2021/08/13 06:07:11;;;;;;;9.05;8.40;;;;;;;;;;4984460;28;24776;-52
2021/08/13 06:09:36;;;;;;;7.85;7.35;;;;;;;;;;4984217;28;24452;-51
2021/08/13 06:12:01;;;;;;;7.88;7.35;;;;;;;;;;4984836;28;24516;-52
2021/08/13 06:14:26;;;;;;;7.43;6.93;;;;;;;;;;4984643;28;25026;-52
2021/08/13 06:16:52;;;;;;;8.20;7.60;;;;;;;;;;4984088;28;24757;-54
2021/08/13 06:19:17;;;;;;;8.63;8.03;;;;;;;;;;4983713;28;24824;-52
2021/08/13 06:21:42;;;;;;;8.50;7.80;;;;;;;;;;4984674;28;25014;-52
2021/08/13 06:24:07;;;;;;;8.20;7.60;;;;;;;;;;4982609;28;24987;-52
2021/08/13 06:26:32;;;;;;;7.50;6.93;;;;;;;;;;4982983;28;24479;-52
2021/08/13 06:28:57;;;;;;;7.95;7.25;;;;;;;;;;4982257;28;24843;-52
2021/08/13 06:31:23;;;;;;;8.60;7.70;;;;;;;;;;4980158;28;24413;-52
2021/08/13 06:33:49;;;;;;;7.80;7.30;;;;;;;;;;4983341;28;24417;-51
2021/08/13 06:36:14;;;;;;;7.80;7.20;;;;;;;;;;4983000;28;24547;-52
2021/08/13 06:38:39;;;;;;;7.70;7.10;;;;;;;;;;4982684;28;25369;-51
2021/08/13 06:41:05;;;;;;;8.73;7.93;;;;;;;;;;4980851;28;24435;-53
2021/08/13 06:43:30;;;;;;;8.40;7.70;;;;;;;;;;4981718;28;24445;-53
2021/08/13 06:45:56;;;;;;;8.50;7.70;;;;;;;;;;4983709;28;24520;-51
2021/08/13 06:48:21;;;;;;;7.45;6.85;;;;;;;;;;4982256;28;24865;-52
2021/08/13 06:50:46;;;;;;;8.50;7.70;;;;;;;;;;4981388;28;24569;-52
2021/08/13 06:53:11;;;;;;;7.93;7.22;;;;;;;;;;4977729;28;24429;-52
2021/08/13 06:55:36;;;;;;;6.83;6.23;;;;;;;;;;4979681;28;24550;-53
2021/08/13 06:58:05;;;;;;;8.40;7.60;;;;;;;;;;4979379;28;24433;-51
2021/08/13 07:00:30;;;;;;;8.07;7.40;;;;;;;;;;4983002;28;24417;-52
2021/08/13 07:02:56;;;;;;;7.80;7.00;;;;;;;;;;4982241;28;24456;-52
2021/08/13 07:05:21;;;;;;;8.02;7.22;;;;;;;;;;4978872;28;24401;-51
2021/08/13 07:07:46;;;;;;;8.07;7.37;;;;;;;;;;4978833;28;24492;-52
2021/08/13 07:10:12;;;;;;;8.00;7.30;;;;;;;;;;4980294;28;24436;-51
2021/08/13 07:12:37;;;;;;;7.80;7.15;;;;;;;;;;4982619;28;24462;-52
2021/08/13 07:15:03;;;;;;;7.40;6.90;;;;;;;;;;4984149;28;24517;-52
2021/08/13 07:17:28;;;;;;;6.95;6.45;;;;;;;;;;4982201;28;24384;-51
2021/08/13 07:19:53;;;;;;;7.45;6.95;;;;;;;;;;4978468;28;24989;-53
2021/08/13 07:22:18;;;;;;;8.20;7.40;;;;;;;;;;4978555;28;24453;-52
2021/08/13 07:24:43;;;;;;;7.80;7.20;;;;;;;;;;4978574;28;24420;-53
2021/08/13 07:27:08;;;;;;;7.40;6.80;;;;;;;;;;4983909;28;24507;-52
2021/08/13 07:29:33;;;;;;;7.25;6.75;;;;;;;;;;4984057;28;24398;-53
2021/08/13 07:31:59;;;;;;;7.70;7.10;;;;;;;;;;4978474;28;25392;-51
2021/08/13 07:34:24;;;;;;;7.70;7.10;;;;;;;;;;4978601;28;24433;-51
2021/08/13 07:36:49;;;;;;;6.95;6.45;;;;;;;;;;4977756;28;24511;-52
2021/08/13 07:39:14;;;;;;;7.88;7.10;;;;;;;;;;4978753;28;25002;-52
2021/08/13 07:41:39;;;;;;;7.13;6.53;;;;;;;;;;4978827;28;25281;-53
2021/08/13 07:44:05;;;;;;;7.50;6.97;;;;;;;;;;4982395;28;24429;-51
2021/08/13 07:46:30;;;;;;;7.45;6.85;;;;;;;;;;4980557;28;24425;-52
2021/08/13 07:48:55;;;;;;;7.25;6.70;;;;;;;;;;4976152;28;24421;-52
2021/08/13 07:51:20;;;;;;;7.13;6.63;;;;;;;;;;4981051;28;24872;-50
2021/08/13 07:53:45;;;;;;;8.10;7.40;;;;;;;;;;4981124;28;24444;-51
2021/08/13 07:56:10;;;;;;;7.30;6.80;;;;;;;;;;4986528;28;24495;-53
2021/08/13 07:58:36;;;;;;;7.37;6.67;;;;;;;;;;4984497;28;24977;-52
2021/08/13 08:01:01;;;;;;;7.30;6.80;;;;;;;;;;4980922;28;25007;-52
2021/08/13 08:03:26;;;;;;;7.60;7.00;;;;;;;;;;4984926;28;24475;-51
2021/08/13 08:05:52;;;;;;;7.90;7.30;;;;;;;;;;4984292;28;24424;-52
2021/08/13 08:08:17;;;;;;;7.75;7.15;;;;;;;;;;4974227;28;24460;-52
2021/08/13 08:10:46;;;;;;;7.72;7.13;;;;;;;;;;4984389;28;24413;-53
2021/08/13 08:13:12;;;;;;;7.87;7.20;;;;;;;;;;4980714;28;24504;-54
2021/08/13 08:15:37;;;;;;;7.60;7.00;;;;;;;;;;4982623;28;24556;-52
2021/08/13 08:18:02;;;;;;;8.00;7.30;;;;;;;;;;4984652;28;24993;-51
2021/08/13 08:20:27;;;;;;;7.17;6.67;;;;;;;;;;4985567;28;24408;-51
2021/08/13 08:22:52;;;;;;;7.37;6.87;;;;;;;;;;4983031;28;25033;-52
2021/08/13 08:25:18;;;;;;;7.13;6.63;;;;;;;;;;4982892;28;24421;-52
2021/08/13 08:27:43;;;;;;;7.30;6.80;;;;;;;;;;4981224;28;24412;-52
2021/08/13 08:30:08;;;;;;;7.20;6.70;;;;;;;;;;4985839;28;24424;-52
2021/08/13 08:32:33;;;;;;;8.70;7.90;;;;;;;;;;4986291;28;24424;-53
2021/08/13 08:34:58;;;;;;;7.28;6.57;;;;;;;;;;4984028;28;24722;-52
2021/08/13 08:37:23;;;;;;;8.10;7.40;;;;;;;;;;4980858;28;24428;-52
2021/08/13 08:39:49;;;;;;;7.33;6.73;;;;;;;;;;4980017;28;24416;-52
2021/08/13 08:42:15;;;;;;;7.10;6.60;;;;;;;;;;4984591;28;24482;-52
2021/08/13 08:44:41;;;;;;;7.35;6.78;;;;;;;;;;4984180;28;24982;-53
2021/08/13 08:47:08;;;;;;;6.88;6.28;;;;;;;;;;4986133;28;24417;-52
2021/08/13 08:49:34;;;;;;;7.60;7.00;;;;;;;;;;4985293;28;24405;-52
2021/08/13 08:51:59;;;;;;;7.43;6.82;;;;;;;;;;4979746;28;24428;-53
2021/08/13 08:54:26;;;;;;;7.70;7.10;;;;;;;;;;4980527;28;24433;-51
2021/08/13 08:56:52;;;;;;;7.20;6.70;;;;;;;;;;4981685;28;24439;-52
2021/08/13 08:59:18;;;;;;;7.03;6.53;;;;;;;;;;4982168;28;25045;-52
2021/08/13 09:01:43;;;;;;;7.57;6.97;;;;;;;;;;4981821;28;24429;-52
2021/08/13 09:04:09;;;;;;;7.40;6.90;;;;;;;;;;4985458;28;25109;-52
2021/08/13 09:06:34;;;;;;;7.57;7.07;;;;;;;;;;4971349;28;24420;-51
2021/08/13 09:08:59;;;;;;;7.10;6.50;;;;;;;;;;4980867;28;24448;-50
2021/08/13 09:11:25;;;;;;;8.30;7.60;;;;;;;;;;4984195;28;24464;-52
2021/08/13 09:13:57;;;;;;;7.47;6.97;;;;;;;;;;4985132;28;24464;-51
2021/08/13 09:16:22;;;;;;;7.33;6.63;;;;;;;;;;4984834;28;25352;-52
2021/08/13 09:18:55;;;;;;;7.70;7.17;;;;;;;;;;4969966;28;24468;-52
2021/08/13 09:21:20;;;;;;;7.72;7.03;;;;;;;;;;4982764;28;24409;-50
2021/08/13 09:23:46;;;;;;;7.82;7.22;;;;;;;;;;4981912;28;24439;-52
2021/08/13 09:26:13;;;;;;;7.63;6.90;;;;;;;;;;4982126;28;24464;-52
2021/08/13 09:28:38;;;;;;;7.68;7.07;;;;;;;;;;4985016;28;24864;-52
2021/08/13 09:31:10;;;;;;;7.60;7.00;;;;;;;;;;4982781;28;25140;-52
2021/08/13 09:33:35;;;;;;;8.10;7.40;;;;;;;;;;4980772;28;24420;-52
2021/08/13 09:36:01;;;;;;;8.10;7.40;;;;;;;;;;4979457;28;24971;-52
2021/08/13 09:38:28;;;;;;;7.63;6.93;;;;;;;;;;4979231;28;24417;-52
2021/08/13 09:41:03;;;;;;;7.50;7.00;;;;;;;;;;4980888;28;24529;-52
2021/08/13 09:43:29;;;;;;;7.60;7.00;;;;;;;;;;4984378;28;24432;-53
2021/08/13 09:46:05;;;;;;;6.50;6.10;;;;;;;;;;4982500;28;24775;-51
2021/08/13 09:48:30;;;;;;;8.02;7.43;;;;;;;;;;4984863;28;24409;-52
2021/08/13 09:50:56;;;;;;;7.17;6.67;;;;;;;;;;4978457;28;25104;-52
2021/08/13 09:53:21;;;;;;;7.67;7.03;;;;;;;;;;4981033;28;24433;-53
2021/08/13 09:55:46;;;;;;;8.13;7.43;;;;;;;;;;4978689;28;24524;-53
2021/08/13 09:58:11;;;;;;;7.80;7.10;;;;;;;;;;4984718;28;24475;-51
2021/08/13 10:00:47;;;;;;;7.83;7.20;;;;;;;;;;4983695;28;24405;-53
2021/08/13 10:03:12;;;;;;;7.65;7.05;;;;;;;;;;4978429;28;24966;-52
2021/08/13 10:05:37;;;;;;;8.20;7.60;;;;;;;;;;4982238;28;24439;-52
2021/08/13 10:08:03;;;;;;;8.47;7.80;;;;;;;;;;4984814;28;24911;-52
2021/08/13 10:10:29;;;;;;;8.95;8.05;;;;;;;;;;4983703;28;24994;-54
2021/08/13 10:12:55;;;;;;;8.82;8.18;;;;;;;;;;4981359;28;24516;-53
2021/08/13 10:15:27;;;;;;;8.10;7.50;;;;;;;;;;4982644;28;24838;-53
2021/08/13 10:17:53;;;;;;;8.50;7.90;;;;;;;;;;4977681;28;24421;-53
2021/08/13 10:20:18;;;;;;;7.40;6.90;;;;;;;;;;4978990;28;24436;-52
2021/08/13 10:22:44;;;;;;;7.75;7.15;;;;;;;;;;4980439;28;24459;-52
2021/08/13 10:25:10;;;;;;;7.67;7.17;;;;;;;;;;4982101;28;24468;-52
2021/08/13 10:27:35;;;;;;;8.57;7.97;;;;;;;;;;4984322;28;24408;-52
2021/08/13 10:30:00;;;;;;;8.20;7.60;;;;;;;;;;4982114;28;24780;-52
2021/08/13 10:32:26;;;;;;;7.93;7.33;;;;;;;;;;4984107;28;24475;-52
2021/08/13 10:34:51;;;;;;;8.20;7.60;;;;;;;;;;4978050;28;24435;-52
2021/08/13 10:37:16;;;;;;;8.70;8.00;;;;;;;;;;4978903;28;24480;-53
2021/08/13 10:39:42;;;;;;;8.90;8.20;;;;;;;;;;4978580;28;24772;-53
2021/08/13 10:42:08;;;;;;;7.80;7.20;;;;;;;;;;4980681;28;24859;-53
2021/08/13 10:44:36;;;;;;;8.70;8.00;;;;;;;;;;4981906;28;24413;-53
2021/08/13 10:47:07;;;;;;;8.32;7.72;;;;;;;;;;4984302;28;24543;-53
2021/08/13 10:49:33;;;;;;;8.27;7.67;;;;;;;;;;4983943;28;24413;-53
2021/08/13 10:52:02;;;;;;;8.10;7.50;;;;;;;;;;4980368;28;24508;-53
2021/08/13 10:54:41;;;;;;;8.75;8.15;;;;;;;;;;4978108;28;24447;-53
2021/08/13 10:57:07;;;;;;;8.38;7.57;;;;;;;;;;4980373;28;24488;-53
2021/08/13 10:59:41;;;;;;;8.32;7.72;;;;;;;;;;4978569;28;24388;-52
2021/08/13 11:02:11;;;;;;;8.60;8.00;;;;;;;;;;4983071;28;24433;-53
2021/08/13 11:04:40;;;;;;;8.40;7.80;;;;;;;;;;4984051;28;24903;-53
2021/08/13 11:07:05;;;;;;;8.70;8.00;;;;;;;;;;4980332;28;24467;-52
2021/08/13 11:09:32;;;;;;;9.23;8.50;;;;;;;;;;4978257;28;24401;-53
2021/08/13 11:11:57;;;;;;;9.67;8.90;;;;;;;;;;4980078;28;24393;-53
2021/08/13 11:14:22;;;;;;;9.70;9.00;;;;;;;;;;4983517;28;24415;-52
2021/08/13 11:16:48;;;;;;;9.80;8.90;;;;;;;;;;4981980;28;24488;-53
2021/08/13 11:19:13;;;;;;;9.10;8.40;;;;;;;;;;4983852;28;24412;-53
2021/08/13 11:21:38;;;;;;;9.70;8.90;;;;;;;;;;4980163;28;24433;-52
2021/08/13 11:24:05;;;;;;;8.87;8.27;;;;;;;;;;4978182;28;24424;-52
2021/08/13 11:26:48;;;;;;;9.68;8.98;;;;;;;;;;4978326;28;24401;-52
2021/08/13 11:29:29;;;;;;;9.85;9.05;;;;;;;;;;4979742;28;24532;-52
2021/08/13 11:31:54;;;;;;;10.05;9.15;;;;;;;;;;4986912;28;24468;-52
2021/08/13 11:34:38;;;;;;;11.20;10.30;;;;;;;;;;4987306;28;24401;-52
2021/08/13 11:37:03;;;;;;;10.30;9.40;;;;;;;;;;4983583;28;24421;-52
2021/08/13 11:39:39;;;;;;;10.90;10.10;;;;;;;;;;4982062;28;25021;-52
2021/08/13 11:42:05;;;;;;;10.60;9.80;;;;;;;;;;4991081;28;24413;-53
2021/08/13 11:44:31;;;;;;;11.80;10.90;;;;;;;;;;4983202;28;24428;-52
2021/08/13 11:46:56;;;;;;;10.70;9.90;;;;;;;;;;4977556;28;24417;-53
2021/08/13 11:49:22;;;;;;;11.25;10.35;;;;;;;;;;4978900;28;24428;-53
2021/08/13 11:51:47;;;;;;;11.07;10.17;;;;;;;;;;4980245;28;24425;-52
2021/08/13 11:54:35;;;;;;;10.75;9.95;;;;;;;;;;4977907;28;24443;-53
2021/08/13 11:57:13;;;;;;;11.20;10.30;;;;;;;;;;4983578;28;24428;-52
2021/08/13 11:59:38;;;;;;;11.30;10.50;;;;;;;;;;4978113;28;24476;-52
2021/08/13 12:02:03;;;;;;;11.90;11.00;;;;;;;;;;4978150;28;24417;-51
2021/08/13 12:04:28;;;;;;;11.30;10.40;;;;;;;;;;4979112;28;24413;-51
2021/08/13 12:07:04;;;;;;;14.43;12.13;;;;;;;;;;4979433;28;25180;-52
2021/08/13 12:09:29;;;;;;;12.75;11.77;;;;;;;;;;4981206;28;24505;-52
2021/08/13 12:11:54;;;;;;;12.50;11.50;;;;;;;;;;4980148;28;24393;-52
2021/08/13 12:14:20;;;;;;;13.33;12.13;;;;;;;;;;4977866;28;24413;-53
2021/08/13 12:16:50;;;;;;;12.18;11.27;;;;;;;;;;4978404;28;25034;-53
2021/08/13 12:19:16;;;;;;;12.48;11.52;;;;;;;;;;4979536;28;24816;-53
2021/08/13 12:21:51;;;;;;;14.53;13.23;;;;;;;;;;4983437;28;24420;-53
2021/08/13 12:24:26;;;;;;;13.02;11.93;;;;;;;;;;4984716;28;24535;-53
2021/08/13 12:26:57;;;;;;;13.27;12.27;;;;;;;;;;4981582;28;24417;-53
2021/08/13 12:29:22;;;;;;;12.80;11.70;;;;;;;;;;4960305;28;24931;-53
2021/08/13 12:31:52;;;;;;;13.20;12.20;;;;;;;;;;4977146;28;24424;-53
2021/08/13 12:34:20;;;;;;;14.07;12.88;;;;;;;;;;4980304;28;24521;-53
2021/08/13 12:36:45;;;;;;;13.55;12.55;;;;;;;;;;4980543;28;24787;-54
2021/08/13 12:39:10;;;;;;;13.60;12.40;;;;;;;;;;4982862;28;24962;-53
2021/08/13 12:41:35;;;;;;;12.83;11.83;;;;;;;;;;4982292;28;24502;-53
2021/08/13 12:44:01;;;;;;;12.67;11.73;;;;;;;;;;4977186;28;24445;-53
2021/08/13 12:46:27;;;;;;;12.10;11.25;;;;;;;;;;4977276;28;24412;-52
2021/08/13 12:48:52;;;;;;;12.63;11.63;;;;;;;;;;4983067;28;24602;-53
2021/08/13 12:51:24;;;;;;;12.10;11.20;;;;;;;;;;4981680;28;24428;-52
2021/08/13 12:53:50;;;;;;;12.13;11.13;;;;;;;;;;4974411;28;24491;-51
2021/08/13 12:56:19;;;;;;;11.40;10.60;;;;;;;;;;4982881;28;24424;-54
2021/08/13 12:58:44;;;;;;;11.98;11.05;;;;;;;;;;4975137;28;24462;-52
2021/08/13 13:01:29;;;;;;;11.40;10.60;;;;;;;;;;4976256;28;24789;-53
2021/08/13 13:04:07;;;;;;;12.13;11.13;;;;;;;;;;4975613;28;24471;-53
2021/08/13 13:06:32;;;;;;;12.80;11.70;;;;;;;;;;4976886;28;24440;-53
2021/08/13 13:08:57;;;;;;;10.60;9.80;;;;;;;;;;4979406;28;24545;-54
2021/08/13 13:11:24;;;;;;;11.20;10.32;;;;;;;;;;4982777;28;24397;-53
2021/08/13 13:13:50;;;;;;;11.02;10.13;;;;;;;;;;4977351;28;24468;-55
2021/08/13 13:16:15;;;;;;;11.15;10.15;;;;;;;;;;4978531;28;24799;-53
2021/08/13 13:18:40;;;;;;;11.27;10.47;;;;;;;;;;4979276;28;25116;-53
2021/08/13 13:21:18;;;;;;;10.07;9.27;;;;;;;;;;4980703;28;24417;-52
2021/08/13 13:23:43;;;;;;;11.00;10.00;;;;;;;;;;4979213;28;25003;-52
2021/08/13 13:26:12;;;;;;;10.63;9.80;;;;;;;;;;4981588;28;24994;-52
2021/08/13 13:28:37;;;;;;;10.48;9.68;;;;;;;;;;4978794;28;24452;-53
2021/08/13 13:31:17;;;;;;;10.20;9.40;;;;;;;;;;4976257;28;24675;-52
2021/08/13 13:33:42;;;;;;;10.68;9.88;;;;;;;;;;4980524;28;24420;-53
2021/08/13 13:36:08;;;;;;;10.90;9.90;;;;;;;;;;4981955;28;25150;-52
2021/08/13 13:38:37;;;;;;;11.33;10.33;;;;;;;;;;4982300;28;24413;-52
2021/08/13 13:41:03;;;;;;;10.02;9.25;;;;;;;;;;4978737;28;25085;-53
2021/08/13 13:43:29;;;;;;;10.13;9.38;;;;;;;;;;4976709;28;24975;-53
2021/08/13 13:45:55;;;;;;;10.13;9.23;;;;;;;;;;4977333;28;24528;-52
2021/08/13 13:48:20;;;;;;;10.30;9.50;;;;;;;;;;4981810;28;24436;-52
2021/08/13 13:50:45;;;;;;;10.70;9.90;;;;;;;;;;4980764;28;25385;-52
2021/08/13 13:53:11;;;;;;;9.90;9.20;;;;;;;;;;4980037;28;24472;-53
2021/08/13 13:55:36;;;;;;;10.60;9.80;;;;;;;;;;4980698;28;24452;-52
2021/08/13 13:58:01;;;;;;;10.30;9.50;;;;;;;;;;4982476;28;24420;-54
2021/08/13 14:00:26;;;;;;;9.70;9.00;;;;;;;;;;4992509;28;24432;-52
2021/08/13 14:02:52;;;;;;;10.77;9.87;;;;;;;;;;5000666;28;24388;-53
2021/08/13 14:05:18;;;;;;;10.60;9.80;;;;;;;;;;4994102;28;25002;-53
2021/08/13 14:07:44;;;;;;;10.10;9.30;;;;;;;;;;4979454;28;24500;-53
2021/08/13 14:10:11;;;;;;;11.25;10.45;;;;;;;;;;4982491;28;24405;-54
2021/08/13 14:12:37;;;;;;;10.48;9.57;;;;;;;;;;4982843;28;24489;-53
2021/08/13 14:15:12;;;;;;;10.98;10.13;;;;;;;;;;4982321;28;25054;-53
2021/08/13 14:17:37;;;;;;;11.00;10.20;;;;;;;;;;4980640;28;24505;-52
2021/08/13 14:20:03;;;;;;;10.55;9.73;;;;;;;;;;4978879;28;24476;-54
2021/08/13 14:22:29;;;;;;;10.60;9.70;;;;;;;;;;4982453;28;24838;-54
2021/08/13 14:24:54;;;;;;;10.52;9.63;;;;;;;;;;4982171;28;24943;-52
2021/08/13 14:27:19;;;;;;;9.50;8.80;;;;;;;;;;4983725;28;24452;-53